sensor_id;sensor_type;location;lat;lon;timestamp;pressure;altitude;pressure_sealevel;temperature;humidity
22662;BME280;11497;52.222;21.246;2022-11-20T00:01:28;100339.31;;;-4.99;78.52
22662;BME280;11497;52.222;21.246;2022-11-20T00:03:57;100343.25;;;-5.11;78.48
22662;BME280;11497;52.222;21.246;2022-11-20T00:06:27;100346.72;;;-5.09;78.73
22662;BME280;11497;52.222;21.246;2022-11-20T00:08:57;100353.31;;;-5.15;78.71
22662;BME280;11497;52.222;21.246;2022-11-20T00:11:27;100358.19;;;-5.24;78.79
22662;BME280;11497;52.222;21.246;2022-11-20T00:14:01;100356.41;;;-5.27;79.11
22662;BME280;11497;52.222;21.246;2022-11-20T00:16:31;100355.41;;;-5.32;79.09
22662;BME280;11497;52.222;21.246;2022-11-20T00:18:59;100355.06;;;-5.43;79.15
22662;BME280;11497;52.222;21.246;2022-11-20T00:21:28;100354.06;;;-5.48;79.26
22662;BME280;11497;52.222;21.246;2022-11-20T00:23:57;100350.59;;;-5.50;79.70
22662;BME280;11497;52.222;21.246;2022-11-20T00:26:27;100351.47;;;-5.49;79.88
22662;BME280;11497;52.222;21.246;2022-11-20T00:28:57;100348.81;;;-5.52;79.86
22662;BME280;11497;52.222;21.246;2022-11-20T00:31:26;100342.50;;;-5.65;79.98
22662;BME280;11497;52.222;21.246;2022-11-20T00:33:55;100342.25;;;-5.73;80.21
22662;BME280;11497;52.222;21.246;2022-11-20T00:36:24;100341.22;;;-5.79;80.55
22662;BME280;11497;52.222;21.246;2022-11-20T00:38:57;100336.75;;;-5.58;80.89
22662;BME280;11497;52.222;21.246;2022-11-20T00:41:28;100346.28;;;-5.52;80.88
22662;BME280;11497;52.222;21.246;2022-11-20T00:43:56;100341.66;;;-5.65;80.67
22662;BME280;11497;52.222;21.246;2022-11-20T00:46:26;100336.72;;;-5.86;80.97
22662;BME280;11497;52.222;21.246;2022-11-20T00:48:55;100338.50;;;-5.84;80.98
22662;BME280;11497;52.222;21.246;2022-11-20T00:51:25;100334.50;;;-6.04;81.54
22662;BME280;11497;52.222;21.246;2022-11-20T00:53:56;100340.38;;;-6.07;81.89
22662;BME280;11497;52.222;21.246;2022-11-20T00:56:24;100334.16;;;-6.15;82.00
22662;BME280;11497;52.222;21.246;2022-11-20T00:58:52;100345.84;;;-6.21;82.05
22662;BME280;11497;52.222;21.246;2022-11-20T01:01:22;100344.19;;;-6.19;82.66
22662;BME280;11497;52.222;21.246;2022-11-20T01:03:53;100330.66;;;-6.18;82.65
22662;BME280;11497;52.222;21.246;2022-11-20T01:06:31;100328.41;;;-6.09;83.25
22662;BME280;11497;52.222;21.246;2022-11-20T01:09:02;100326.84;;;-6.04;83.40
22662;BME280;11497;52.222;21.246;2022-11-20T01:11:33;100322.50;;;-6.08;83.41
22662;BME280;11497;52.222;21.246;2022-11-20T01:14:04;100326.47;;;-6.16;83.69
22662;BME280;11497;52.222;21.246;2022-11-20T01:16:38;100317.47;;;-6.05;83.68
22662;BME280;11497;52.222;21.246;2022-11-20T01:19:07;100312.97;;;-6.14;83.72
22662;BME280;11497;52.222;21.246;2022-11-20T01:21:38;100317.00;;;-6.20;83.95
22662;BME280;11497;52.222;21.246;2022-11-20T01:24:07;100311.69;;;-6.26;84.15
22662;BME280;11497;52.222;21.246;2022-11-20T01:26:38;100312.09;;;-6.40;83.98
22662;BME280;11497;52.222;21.246;2022-11-20T01:29:07;100304.56;;;-6.37;84.04
22662;BME280;11497;52.222;21.246;2022-11-20T01:31:37;100312.91;;;-6.41;84.02
22662;BME280;11497;52.222;21.246;2022-11-20T01:34:14;100313.94;;;-6.35;84.47
22662;BME280;11497;52.222;21.246;2022-11-20T01:36:44;100316.50;;;-6.35;84.34
22662;BME280;11497;52.222;21.246;2022-11-20T01:39:17;100310.06;;;-6.24;84.47
22662;BME280;11497;52.222;21.246;2022-11-20T01:41:47;100307.94;;;-6.12;84.89
22662;BME280;11497;52.222;21.246;2022-11-20T01:44:52;100308.44;;;-6.22;84.65
22662;BME280;11497;52.222;21.246;2022-11-20T01:47:40;100310.41;;;-6.14;85.18
22662;BME280;11497;52.222;21.246;2022-11-20T01:50:24;100314.50;;;-6.19;84.73
22662;BME280;11497;52.222;21.246;2022-11-20T01:53:07;100307.41;;;-6.27;84.93
22662;BME280;11497;52.222;21.246;2022-11-20T01:55:47;100303.13;;;-6.28;84.90
22662;BME280;11497;52.222;21.246;2022-11-20T01:58:18;100301.09;;;-6.13;84.99
22662;BME280;11497;52.222;21.246;2022-11-20T02:00:48;100305.75;;;-6.00;84.67
22662;BME280;11497;52.222;21.246;2022-11-20T02:03:17;100297.56;;;-5.90;84.55
22662;BME280;11497;52.222;21.246;2022-11-20T02:05:55;100289.94;;;-5.90;84.51
22662;BME280;11497;52.222;21.246;2022-11-20T02:08:25;100291.38;;;-5.70;84.28
22662;BME280;11497;52.222;21.246;2022-11-20T02:10:53;100286.53;;;-5.60;84.04
22662;BME280;11497;52.222;21.246;2022-11-20T02:13:21;100286.34;;;-5.38;83.65
22662;BME280;11497;52.222;21.246;2022-11-20T02:16:27;100288.25;;;-5.31;83.24
22662;BME280;11497;52.222;21.246;2022-11-20T02:18:58;100282.28;;;-5.02;82.57
22662;BME280;11497;52.222;21.246;2022-11-20T02:24:22;100274.81;;;-4.94;81.54
22662;BME280;11497;52.222;21.246;2022-11-20T02:27:03;100266.56;;;-4.85;80.89
22662;BME280;11497;52.222;21.246;2022-11-20T02:29:52;100279.81;;;-4.98;81.05
22662;BME280;11497;52.222;21.246;2022-11-20T02:32:27;100277.47;;;-4.91;81.15
22662;BME280;11497;52.222;21.246;2022-11-20T02:34:56;100286.25;;;-4.81;80.83
22662;BME280;11497;52.222;21.246;2022-11-20T02:37:34;100286.13;;;-5.16;80.66
22662;BME280;11497;52.222;21.246;2022-11-20T02:40:04;100285.06;;;-5.24;80.81
22662;BME280;11497;52.222;21.246;2022-11-20T02:42:32;100285.97;;;-5.22;81.03
22662;BME280;11497;52.222;21.246;2022-11-20T02:45:00;100279.28;;;-5.47;81.15
22662;BME280;11497;52.222;21.246;2022-11-20T02:47:28;100291.00;;;-5.53;81.39
22662;BME280;11497;52.222;21.246;2022-11-20T02:49:56;100296.56;;;-5.66;81.92
22662;BME280;11497;52.222;21.246;2022-11-20T02:52:24;100294.94;;;-5.64;82.29
22662;BME280;11497;52.222;21.246;2022-11-20T02:54:52;100296.91;;;-5.54;82.67
22662;BME280;11497;52.222;21.246;2022-11-20T02:57:20;100300.06;;;-5.63;82.75
22662;BME280;11497;52.222;21.246;2022-11-20T02:59:48;100309.09;;;-5.74;82.78
22662;BME280;11497;52.222;21.246;2022-11-20T03:02:16;100306.28;;;-5.82;83.27
22662;BME280;11497;52.222;21.246;2022-11-20T03:04:44;100303.13;;;-5.75;83.40
22662;BME280;11497;52.222;21.246;2022-11-20T03:07:12;100300.44;;;-5.79;83.61
22662;BME280;11497;52.222;21.246;2022-11-20T03:09:40;100307.94;;;-5.84;83.89
22662;BME280;11497;52.222;21.246;2022-11-20T03:12:08;100295.84;;;-5.91;83.95
22662;BME280;11497;52.222;21.246;2022-11-20T03:14:36;100301.88;;;-5.87;84.22
22662;BME280;11497;52.222;21.246;2022-11-20T03:17:04;100299.09;;;-5.95;84.46
22662;BME280;11497;52.222;21.246;2022-11-20T03:19:32;100292.34;;;-5.94;84.20
22662;BME280;11497;52.222;21.246;2022-11-20T03:22:00;100296.09;;;-6.10;84.31
22662;BME280;11497;52.222;21.246;2022-11-20T03:24:28;100293.47;;;-6.13;84.41
22662;BME280;11497;52.222;21.246;2022-11-20T03:26:56;100298.56;;;-6.13;84.57
22662;BME280;11497;52.222;21.246;2022-11-20T03:29:24;100293.16;;;-6.22;84.79
22662;BME280;11497;52.222;21.246;2022-11-20T03:31:52;100290.72;;;-6.19;85.00
22662;BME280;11497;52.222;21.246;2022-11-20T03:34:20;100289.59;;;-6.27;85.01
22662;BME280;11497;52.222;21.246;2022-11-20T03:36:48;100293.91;;;-6.52;84.93
22662;BME280;11497;52.222;21.246;2022-11-20T03:39:16;100285.44;;;-6.51;85.39
22662;BME280;11497;52.222;21.246;2022-11-20T03:41:43;100290.91;;;-6.39;85.64
22662;BME280;11497;52.222;21.246;2022-11-20T03:44:12;100282.88;;;-6.25;86.20
22662;BME280;11497;52.222;21.246;2022-11-20T03:46:40;100287.34;;;-6.44;86.08
22662;BME280;11497;52.222;21.246;2022-11-20T03:49:08;100288.59;;;-6.58;85.98
22662;BME280;11497;52.222;21.246;2022-11-20T03:51:36;100287.47;;;-6.66;86.45
22662;BME280;11497;52.222;21.246;2022-11-20T03:54:06;100287.47;;;-6.41;86.54
22662;BME280;11497;52.222;21.246;2022-11-20T03:56:37;100278.94;;;-6.41;86.83
22662;BME280;11497;52.222;21.246;2022-11-20T03:59:05;100277.78;;;-6.25;86.85
22662;BME280;11497;52.222;21.246;2022-11-20T04:01:35;100283.53;;;-6.31;87.10
22662;BME280;11497;52.222;21.246;2022-11-20T04:04:05;100287.47;;;-6.41;87.08
22662;BME280;11497;52.222;21.246;2022-11-20T04:06:37;100289.38;;;-6.33;87.30
22662;BME280;11497;52.222;21.246;2022-11-20T04:09:06;100283.38;;;-6.35;87.01
22662;BME280;11497;52.222;21.246;2022-11-20T04:11:36;100272.94;;;-6.43;87.07
22662;BME280;11497;52.222;21.246;2022-11-20T04:14:06;100266.81;;;-6.50;87.26
22662;BME280;11497;52.222;21.246;2022-11-20T04:16:35;100262.66;;;-6.46;87.87
22662;BME280;11497;52.222;21.246;2022-11-20T04:19:05;100267.38;;;-6.31;87.70
22662;BME280;11497;52.222;21.246;2022-11-20T04:21:34;100268.81;;;-6.40;87.65
22662;BME280;11497;52.222;21.246;2022-11-20T04:24:02;100276.25;;;-6.46;87.75
22662;BME280;11497;52.222;21.246;2022-11-20T04:26:31;100270.19;;;-6.49;87.89
22662;BME280;11497;52.222;21.246;2022-11-20T04:28:59;100271.06;;;-6.74;87.53
22662;BME280;11497;52.222;21.246;2022-11-20T04:31:31;100276.69;;;-6.59;87.87
22662;BME280;11497;52.222;21.246;2022-11-20T04:34:01;100267.16;;;-6.64;87.94
22662;BME280;11497;52.222;21.246;2022-11-20T04:36:31;100259.88;;;-6.54;88.04
22662;BME280;11497;52.222;21.246;2022-11-20T04:39:05;100267.22;;;-6.63;88.21
22662;BME280;11497;52.222;21.246;2022-11-20T04:41:35;100265.53;;;-6.62;88.42
22662;BME280;11497;52.222;21.246;2022-11-20T04:44:05;100261.41;;;-6.59;88.20
22662;BME280;11497;52.222;21.246;2022-11-20T04:46:42;100253.97;;;-6.53;88.36
22662;BME280;11497;52.222;21.246;2022-11-20T04:49:11;100250.25;;;-6.62;88.17
22662;BME280;11497;52.222;21.246;2022-11-20T04:51:39;100249.97;;;-6.45;88.32
22662;BME280;11497;52.222;21.246;2022-11-20T04:54:07;100243.25;;;-6.43;87.82
22662;BME280;11497;52.222;21.246;2022-11-20T04:56:35;100246.81;;;-6.38;87.56
22662;BME280;11497;52.222;21.246;2022-11-20T04:59:03;100247.38;;;-6.46;87.36
22662;BME280;11497;52.222;21.246;2022-11-20T05:01:31;100243.66;;;-6.30;87.51
22662;BME280;11497;52.222;21.246;2022-11-20T05:04:00;100241.09;;;-6.30;87.16
22662;BME280;11497;52.222;21.246;2022-11-20T05:06:28;100235.75;;;-6.38;86.96
22662;BME280;11497;52.222;21.246;2022-11-20T05:08:56;100232.59;;;-6.58;87.34
22662;BME280;11497;52.222;21.246;2022-11-20T05:11:24;100226.25;;;-6.44;86.98
22662;BME280;11497;52.222;21.246;2022-11-20T05:13:52;100228.63;;;-6.50;87.33
22662;BME280;11497;52.222;21.246;2022-11-20T05:16:24;100235.00;;;-6.62;87.14
22662;BME280;11497;52.222;21.246;2022-11-20T05:18:53;100229.13;;;-6.60;87.45
22662;BME280;11497;52.222;21.246;2022-11-20T05:21:22;100229.75;;;-6.67;87.22
22662;BME280;11497;52.222;21.246;2022-11-20T05:23:50;100227.88;;;-6.73;87.43
22662;BME280;11497;52.222;21.246;2022-11-20T05:26:21;100229.44;;;-6.76;87.45
22662;BME280;11497;52.222;21.246;2022-11-20T05:28:50;100232.50;;;-6.61;87.73
22662;BME280;11497;52.222;21.246;2022-11-20T05:31:23;100232.59;;;-6.58;87.37
22662;BME280;11497;52.222;21.246;2022-11-20T05:33:56;100227.41;;;-6.61;87.28
22662;BME280;11497;52.222;21.246;2022-11-20T05:36:24;100231.97;;;-6.76;87.50
22662;BME280;11497;52.222;21.246;2022-11-20T05:38:52;100231.72;;;-6.84;87.30
22662;BME280;11497;52.222;21.246;2022-11-20T05:41:27;100223.88;;;-6.90;87.80
22662;BME280;11497;52.222;21.246;2022-11-20T05:43:56;100216.22;;;-6.66;88.22
22662;BME280;11497;52.222;21.246;2022-11-20T05:46:25;100211.94;;;-6.67;87.56
22662;BME280;11497;52.222;21.246;2022-11-20T05:48:57;100218.44;;;-6.75;87.85
22662;BME280;11497;52.222;21.246;2022-11-20T05:51:26;100221.50;;;-6.85;87.86
22662;BME280;11497;52.222;21.246;2022-11-20T05:53:57;100211.91;;;-6.94;87.91
22662;BME280;11497;52.222;21.246;2022-11-20T05:56:26;100216.94;;;-6.95;87.63
22662;BME280;11497;52.222;21.246;2022-11-20T05:58:54;100214.13;;;-7.03;87.98
22662;BME280;11497;52.222;21.246;2022-11-20T06:01:23;100215.59;;;-6.84;87.72
22662;BME280;11497;52.222;21.246;2022-11-20T06:03:53;100223.97;;;-6.87;87.52
22662;BME280;11497;52.222;21.246;2022-11-20T06:06:21;100217.75;;;-6.96;88.04
22662;BME280;11497;52.222;21.246;2022-11-20T06:08:49;100223.44;;;-6.78;87.95
22662;BME280;11497;52.222;21.246;2022-11-20T06:11:18;100224.94;;;-6.83;87.78
22662;BME280;11497;52.222;21.246;2022-11-20T06:13:46;100220.41;;;-6.93;87.91
22662;BME280;11497;52.222;21.246;2022-11-20T06:16:16;100217.00;;;-6.94;87.58
22662;BME280;11497;52.222;21.246;2022-11-20T06:18:45;100213.84;;;-6.85;87.53
22662;BME280;11497;52.222;21.246;2022-11-20T06:21:16;100213.59;;;-6.93;87.79
22662;BME280;11497;52.222;21.246;2022-11-20T06:23:45;100216.50;;;-6.82;87.69
22662;BME280;11497;52.222;21.246;2022-11-20T06:26:18;100213.56;;;-6.69;88.12
22662;BME280;11497;52.222;21.246;2022-11-20T06:28:47;100210.72;;;-6.78;87.91
22662;BME280;11497;52.222;21.246;2022-11-20T06:31:18;100209.53;;;-6.62;88.01
22662;BME280;11497;52.222;21.246;2022-11-20T06:33:46;100210.41;;;-6.62;87.88
22662;BME280;11497;52.222;21.246;2022-11-20T06:36:16;100209.44;;;-6.39;87.64
22662;BME280;11497;52.222;21.246;2022-11-20T06:38:45;100205.47;;;-6.30;87.68
22662;BME280;11497;52.222;21.246;2022-11-20T06:41:15;100210.69;;;-5.97;87.18
22662;BME280;11497;52.222;21.246;2022-11-20T06:43:44;100211.78;;;-5.59;86.79
22662;BME280;11497;52.222;21.246;2022-11-20T06:46:13;100213.84;;;-5.46;85.95
22662;BME280;11497;52.222;21.246;2022-11-20T06:48:41;100209.09;;;-5.34;85.54
22662;BME280;11497;52.222;21.246;2022-11-20T06:51:09;100212.41;;;-5.05;84.54
22662;BME280;11497;52.222;21.246;2022-11-20T06:53:37;100211.31;;;-5.15;84.16
22662;BME280;11497;52.222;21.246;2022-11-20T06:56:06;100216.56;;;-5.09;83.97
22662;BME280;11497;52.222;21.246;2022-11-20T06:58:35;100208.72;;;-4.50;83.50
22662;BME280;11497;52.222;21.246;2022-11-20T07:01:06;100198.91;;;-3.96;82.44
22662;BME280;11497;52.222;21.246;2022-11-20T07:03:35;100206.69;;;-3.88;81.01
22662;BME280;11497;52.222;21.246;2022-11-20T07:06:03;100203.19;;;-3.54;79.97
22662;BME280;11497;52.222;21.246;2022-11-20T07:08:32;100208.72;;;-3.33;78.86
22662;BME280;11497;52.222;21.246;2022-11-20T07:11:02;100203.38;;;-2.98;77.43
22662;BME280;11497;52.222;21.246;2022-11-20T07:13:31;100203.00;;;-2.73;76.08
22662;BME280;11497;52.222;21.246;2022-11-20T07:16:01;100197.88;;;-2.73;75.52
22662;BME280;11497;52.222;21.246;2022-11-20T07:18:29;100194.00;;;-2.47;74.44
22662;BME280;11497;52.222;21.246;2022-11-20T07:21:03;100191.66;;;-2.35;73.07
22662;BME280;11497;52.222;21.246;2022-11-20T07:23:32;100183.38;;;-2.18;72.50
22662;BME280;11497;52.222;21.246;2022-11-20T07:26:08;100187.06;;;-1.98;71.00
22662;BME280;11497;52.222;21.246;2022-11-20T07:28:37;100190.47;;;-1.99;70.18
22662;BME280;11497;52.222;21.246;2022-11-20T07:31:05;100197.31;;;-2.54;70.06
22662;BME280;11497;52.222;21.246;2022-11-20T07:33:35;100192.31;;;-2.46;70.82
22662;BME280;11497;52.222;21.246;2022-11-20T07:36:03;100193.38;;;-2.33;70.56
22662;BME280;11497;52.222;21.246;2022-11-20T07:38:31;100184.56;;;-2.51;70.88
22662;BME280;11497;52.222;21.246;2022-11-20T07:40:59;100185.19;;;-2.08;70.55
22662;BME280;11497;52.222;21.246;2022-11-20T07:43:29;100183.16;;;-1.69;69.84
22662;BME280;11497;52.222;21.246;2022-11-20T07:45:58;100186.06;;;-1.41;69.39
22662;BME280;11497;52.222;21.246;2022-11-20T07:48:26;100183.44;;;-1.47;69.15
22662;BME280;11497;52.222;21.246;2022-11-20T07:50:55;100174.34;;;-1.18;68.83
22662;BME280;11497;52.222;21.246;2022-11-20T07:53:24;100180.56;;;-0.97;67.84
22662;BME280;11497;52.222;21.246;2022-11-20T07:55:51;100181.53;;;-0.83;67.30
22662;BME280;11497;52.222;21.246;2022-11-20T07:58:21;100181.00;;;-0.46;67.36
22662;BME280;11497;52.222;21.246;2022-11-20T08:00:49;100181.34;;;0.06;65.54
22662;BME280;11497;52.222;21.246;2022-11-20T08:03:17;100181.28;;;-0.05;64.69
22662;BME280;11497;52.222;21.246;2022-11-20T08:05:51;100176.97;;;-0.09;64.56
22662;BME280;11497;52.222;21.246;2022-11-20T08:08:19;100177.13;;;0.17;63.68
22662;BME280;11497;52.222;21.246;2022-11-20T08:10:47;100171.25;;;0.55;63.46
22662;BME280;11497;52.222;21.246;2022-11-20T08:13:15;100168.78;;;0.87;62.87
22662;BME280;11497;52.222;21.246;2022-11-20T08:16:01;100164.53;;;1.39;62.36
22662;BME280;11497;52.222;21.246;2022-11-20T08:18:29;100167.13;;;1.21;61.22
22662;BME280;11497;52.222;21.246;2022-11-20T08:21:03;100168.88;;;1.28;60.93
22662;BME280;11497;52.222;21.246;2022-11-20T08:23:31;100161.97;;;1.45;60.88
22662;BME280;11497;52.222;21.246;2022-11-20T08:25:59;100168.84;;;1.58;60.02
22662;BME280;11497;52.222;21.246;2022-11-20T08:28:27;100174.00;;;1.34;59.87
22662;BME280;11497;52.222;21.246;2022-11-20T08:30:59;100160.22;;;1.78;59.74
22662;BME280;11497;52.222;21.246;2022-11-20T08:33:28;100158.47;;;2.07;59.03
22662;BME280;11497;52.222;21.246;2022-11-20T08:36:02;100158.03;;;2.98;58.11
22662;BME280;11497;52.222;21.246;2022-11-20T08:38:30;100144.97;;;4.10;55.90
22662;BME280;11497;52.222;21.246;2022-11-20T08:41:03;100152.69;;;4.82;54.47
22662;BME280;11497;52.222;21.246;2022-11-20T08:43:52;100150.56;;;5.12;52.48
22662;BME280;11497;52.222;21.246;2022-11-20T08:46:19;100145.72;;;5.44;51.15
22662;BME280;11497;52.222;21.246;2022-11-20T08:48:48;100149.44;;;6.26;50.71
22662;BME280;11497;52.222;21.246;2022-11-20T08:51:16;100147.34;;;6.02;49.47
22662;BME280;11497;52.222;21.246;2022-11-20T08:53:44;100142.50;;;5.81;48.75
22662;BME280;11497;52.222;21.246;2022-11-20T08:56:13;100139.38;;;6.53;48.66
22662;BME280;11497;52.222;21.246;2022-11-20T08:58:41;100138.16;;;7.08;47.37
22662;BME280;11497;52.222;21.246;2022-11-20T09:01:29;100136.16;;;7.54;46.35
22662;BME280;11497;52.222;21.246;2022-11-20T09:03:57;100141.25;;;7.93;45.07
22662;BME280;11497;52.222;21.246;2022-11-20T09:06:26;100131.69;;;8.24;44.29
22662;BME280;11497;52.222;21.246;2022-11-20T09:08:55;100138.00;;;8.17;43.35
22662;BME280;11497;52.222;21.246;2022-11-20T09:11:22;100138.84;;;7.51;43.72
22662;BME280;11497;52.222;21.246;2022-11-20T09:13:51;100134.56;;;7.83;43.53
22662;BME280;11497;52.222;21.246;2022-11-20T09:16:19;100125.19;;;8.41;43.19
22662;BME280;11497;52.222;21.246;2022-11-20T09:18:49;100129.84;;;8.88;42.88
22662;BME280;11497;52.222;21.246;2022-11-20T09:21:36;100108.00;;;8.32;41.68
22662;BME280;11497;52.222;21.246;2022-11-20T09:24:05;100102.72;;;8.04;41.79
22662;BME280;11497;52.222;21.246;2022-11-20T09:26:33;100103.13;;;7.89;42.50
22662;BME280;11497;52.222;21.246;2022-11-20T09:29:01;100100.59;;;7.86;42.55
22662;BME280;11497;52.222;21.246;2022-11-20T09:31:29;100102.22;;;7.57;42.19
22662;BME280;11497;52.222;21.246;2022-11-20T09:33:57;100104.09;;;7.85;42.43
22662;BME280;11497;52.222;21.246;2022-11-20T09:36:24;100110.88;;;7.59;42.38
22662;BME280;11497;52.222;21.246;2022-11-20T09:38:52;100096.16;;;7.57;42.05
22662;BME280;11497;52.222;21.246;2022-11-20T09:41:54;100091.44;;;8.34;42.21
22662;BME280;11497;52.222;21.246;2022-11-20T09:53:08;100083.38;;;9.26;39.95
22662;BME280;11497;52.222;21.246;2022-11-20T09:55:39;100085.47;;;8.88;39.85
22662;BME280;11497;52.222;21.246;2022-11-20T09:58:13;100075.88;;;9.43;39.92
22662;BME280;11497;52.222;21.246;2022-11-20T10:00:43;100078.03;;;8.76;39.39
22662;BME280;11497;52.222;21.246;2022-11-20T10:03:26;100076.19;;;7.57;40.73
22662;BME280;11497;52.222;21.246;2022-11-20T10:06:00;100087.31;;;7.30;41.74
22662;BME280;11497;52.222;21.246;2022-11-20T10:08:39;100082.97;;;7.30;42.33
22662;BME280;11497;52.222;21.246;2022-11-20T10:20:20;100078.06;;;7.85;42.33
22662;BME280;11497;52.222;21.246;2022-11-20T10:31:56;100077.16;;;7.53;43.05
22662;BME280;11497;52.222;21.246;2022-11-20T10:35:00;100070.28;;;6.43;43.52
22662;BME280;11497;52.222;21.246;2022-11-20T10:37:31;100065.56;;;4.74;45.39
22662;BME280;11497;52.222;21.246;2022-11-20T10:43:26;100066.47;;;3.24;49.39
22662;BME280;11497;52.222;21.246;2022-11-20T10:46:03;100066.09;;;2.61;51.08
22662;BME280;11497;52.222;21.246;2022-11-20T10:48:32;100064.47;;;2.46;52.78
22662;BME280;11497;52.222;21.246;2022-11-20T10:56:43;100053.50;;;2.06;55.96
22662;BME280;11497;52.222;21.246;2022-11-20T11:01:48;100053.63;;;1.66;57.01
22662;BME280;11497;52.222;21.246;2022-11-20T11:04:38;100044.09;;;1.79;57.72
22662;BME280;11497;52.222;21.246;2022-11-20T11:07:27;100041.50;;;1.90;58.09
22662;BME280;11497;52.222;21.246;2022-11-20T11:09:58;100032.97;;;1.73;58.21
22662;BME280;11497;52.222;21.246;2022-11-20T11:12:27;100051.84;;;1.78;58.95
22662;BME280;11497;52.222;21.246;2022-11-20T11:14:57;100048.47;;;1.60;59.09
22662;BME280;11497;52.222;21.246;2022-11-20T11:17:33;100051.91;;;1.69;59.64
22662;BME280;11497;52.222;21.246;2022-11-20T11:20:04;100043.25;;;1.82;59.84
22662;BME280;11497;52.222;21.246;2022-11-20T11:22:50;100050.19;;;1.71;60.07
22662;BME280;11497;52.222;21.246;2022-11-20T11:25:36;100043.22;;;1.91;60.27
22662;BME280;11497;52.222;21.246;2022-11-20T11:28:20;100039.78;;;1.89;60.40
22662;BME280;11497;52.222;21.246;2022-11-20T11:30:49;100040.63;;;1.91;60.32
22662;BME280;11497;52.222;21.246;2022-11-20T11:33:24;100034.59;;;1.95;60.40
22662;BME280;11497;52.222;21.246;2022-11-20T11:35:55;100039.81;;;1.83;60.55
22662;BME280;11497;52.222;21.246;2022-11-20T11:38:42;100046.66;;;1.90;60.95
22662;BME280;11497;52.222;21.246;2022-11-20T11:41:16;100039.72;;;2.04;60.86
22662;BME280;11497;52.222;21.246;2022-11-20T11:43:55;100038.03;;;2.02;60.41
22662;BME280;11497;52.222;21.246;2022-11-20T11:46:56;100034.56;;;2.01;60.18
22662;BME280;11497;52.222;21.246;2022-11-20T11:49:24;100035.44;;;1.97;60.77
22662;BME280;11497;52.222;21.246;2022-11-20T11:52:07;100036.16;;;2.23;60.35
22662;BME280;11497;52.222;21.246;2022-11-20T12:00:21;100019.09;;;1.96;61.34
22662;BME280;11497;52.222;21.246;2022-11-20T12:03:09;100019.06;;;2.10;60.82
22662;BME280;11497;52.222;21.246;2022-11-20T12:05:43;100015.63;;;2.08;61.17
22662;BME280;11497;52.222;21.246;2022-11-20T12:08:24;100014.81;;;1.95;61.15
22662;BME280;11497;52.222;21.246;2022-11-20T12:10:58;100016.53;;;1.96;61.20
22662;BME280;11497;52.222;21.246;2022-11-20T12:16:03;100014.00;;;1.83;61.68
22662;BME280;11497;52.222;21.246;2022-11-20T12:18:32;100008.84;;;1.81;61.55
22662;BME280;11497;52.222;21.246;2022-11-20T12:21:17;100007.13;;;1.79;61.88
22662;BME280;11497;52.222;21.246;2022-11-20T12:43:19;99990.84;;;1.71;62.28
22662;BME280;11497;52.222;21.246;2022-11-20T12:49:23;99982.25;;;1.65;63.09
22662;BME280;11497;52.222;21.246;2022-11-20T12:52:19;99976.19;;;1.76;63.10
22662;BME280;11497;52.222;21.246;2022-11-20T12:55:32;99971.09;;;1.66;62.94
22662;BME280;11497;52.222;21.246;2022-11-20T12:58:05;99971.09;;;1.63;62.90
22662;BME280;11497;52.222;21.246;2022-11-20T13:00:54;99971.88;;;1.79;62.72
22662;BME280;11497;52.222;21.246;2022-11-20T13:03:38;99972.84;;;1.55;62.31
22662;BME280;11497;52.222;21.246;2022-11-20T13:06:18;99977.13;;;1.61;62.49
22662;BME280;11497;52.222;21.246;2022-11-20T13:08:54;99966.84;;;1.44;62.67
22662;BME280;11497;52.222;21.246;2022-11-20T13:19:32;99959.22;;;1.12;64.09
22662;BME280;11497;52.222;21.246;2022-11-20T13:22:00;99950.63;;;1.03;64.08
22662;BME280;11497;52.222;21.246;2022-11-20T13:24:31;99951.50;;;1.11;64.01
22662;BME280;11497;52.222;21.246;2022-11-20T13:27:26;99950.63;;;1.15;63.72
22662;BME280;11497;52.222;21.246;2022-11-20T13:30:24;99942.06;;;0.88;64.21
22662;BME280;11497;52.222;21.246;2022-11-20T13:36:20;99952.38;;;0.94;65.02
22662;BME280;11497;52.222;21.246;2022-11-20T13:38:54;99946.34;;;0.95;64.99
22662;BME280;11497;52.222;21.246;2022-11-20T13:41:36;99945.50;;;0.99;64.96
22662;BME280;11497;52.222;21.246;2022-11-20T13:44:14;99936.09;;;0.80;65.54
22662;BME280;11497;52.222;21.246;2022-11-20T13:46:44;99942.94;;;0.51;66.25
22662;BME280;11497;52.222;21.246;2022-11-20T13:49:42;99941.25;;;0.53;66.54
22662;BME280;11497;52.222;21.246;2022-11-20T14:00:17;99930.97;;;0.39;67.70
22662;BME280;11497;52.222;21.246;2022-11-20T14:05:45;99921.50;;;0.30;68.37
22662;BME280;11497;52.222;21.246;2022-11-20T14:08:47;99923.22;;;0.18;69.02
22662;BME280;11497;52.222;21.246;2022-11-20T14:11:20;99918.91;;;0.06;69.51
22662;BME280;11497;52.222;21.246;2022-11-20T14:14:04;99922.34;;;-0.07;69.67
22662;BME280;11497;52.222;21.246;2022-11-20T14:16:40;99919.69;;;-0.25;70.23
22662;BME280;11497;52.222;21.246;2022-11-20T14:19:27;99919.66;;;-0.35;70.70
22662;BME280;11497;52.222;21.246;2022-11-20T14:22:10;99914.53;;;-0.28;71.12
22662;BME280;11497;52.222;21.246;2022-11-20T14:24:43;99911.06;;;-0.49;71.54
22662;BME280;11497;52.222;21.246;2022-11-20T14:27:19;99914.47;;;-0.56;71.95
22662;BME280;11497;52.222;21.246;2022-11-20T14:29:49;99905.97;;;-0.34;72.71
22662;BME280;11497;52.222;21.246;2022-11-20T14:32:20;99899.09;;;-0.47;72.57
22662;BME280;11497;52.222;21.246;2022-11-20T14:34:50;99900.81;;;-0.34;73.11
22662;BME280;11497;52.222;21.246;2022-11-20T14:37:21;99895.69;;;-0.27;73.43
22662;BME280;11497;52.222;21.246;2022-11-20T14:39:53;99896.53;;;-0.30;73.62
22662;BME280;11497;52.222;21.246;2022-11-20T14:42:24;99892.25;;;-0.29;73.49
22662;BME280;11497;52.222;21.246;2022-11-20T14:44:57;99899.09;;;-0.35;73.70
22662;BME280;11497;52.222;21.246;2022-11-20T14:47:29;99903.44;;;-0.23;73.86